sensor_id;sensor_type;location;lat;lon;timestamp;pressure;altitude;pressure_sealevel;temperature;humidity
18527;BME280;9393;42.158;24.748;2023-05-08T00:00:18;99811.09;;;16.81;53.50
18527;BME280;9393;42.158;24.748;2023-05-08T00:03:22;99810.91;;;16.52;53.86
18527;BME280;9393;42.158;24.748;2023-05-08T00:06:27;99803.25;;;16.73;53.57
18527;BME280;9393;42.158;24.748;2023-05-08T00:09:31;99804.06;;;16.43;53.96
18527;BME280;9393;42.158;24.748;2023-05-08T00:12:35;99814.03;;;16.55;53.53
18527;BME280;9393;42.158;24.748;2023-05-08T00:15:39;99809.94;;;16.45;53.22
18527;BME280;9393;42.158;24.748;2023-05-08T00:18:43;99813.38;;;16.53;53.12
18527;BME280;9393;42.158;24.748;2023-05-08T00:21:48;99811.25;;;16.49;53.29
18527;BME280;9393;42.158;24.748;2023-05-08T00:24:52;99806.94;;;16.25;53.50
18527;BME280;9393;42.158;24.748;2023-05-08T00:27:56;99803.41;;;16.41;52.85
18527;BME280;9393;42.158;24.748;2023-05-08T00:30:59;99802.84;;;16.23;53.05
18527;BME280;9393;42.158;24.748;2023-05-08T00:34:05;99797.72;;;16.21;53.12
18527;BME280;9393;42.158;24.748;2023-05-08T00:37:10;99798.47;;;16.38;53.08
18527;BME280;9393;42.158;24.748;2023-05-08T00:40:13;99803.88;;;16.44;52.16
18527;BME280;9393;42.158;24.748;2023-05-08T00:43:17;99804.56;;;16.38;52.27
18527;BME280;9393;42.158;24.748;2023-05-08T00:46:26;99814.66;;;16.27;52.49
18527;BME280;9393;42.158;24.748;2023-05-08T00:49:30;99814.81;;;16.25;52.73
18527;BME280;9393;42.158;24.748;2023-05-08T00:52:38;99815.19;;;16.14;52.63
18527;BME280;9393;42.158;24.748;2023-05-08T00:55:42;99811.13;;;16.03;53.12
18527;BME280;9393;42.158;24.748;2023-05-08T00:58:47;99817.16;;;16.20;52.66
18527;BME280;9393;42.158;24.748;2023-05-08T01:01:51;99828.56;;;16.43;52.16
18527;BME280;9393;42.158;24.748;2023-05-08T01:04:55;99826.78;;;16.75;51.51
18527;BME280;9393;42.158;24.748;2023-05-08T01:08:01;99835.00;;;16.41;52.22
18527;BME280;9393;42.158;24.748;2023-05-08T01:11:12;99837.94;;;16.46;52.03
18527;BME280;9393;42.158;24.748;2023-05-08T01:14:22;99835.78;;;16.57;52.01
18527;BME280;9393;42.158;24.748;2023-05-08T01:17:37;99830.84;;;16.46;52.11
18527;BME280;9393;42.158;24.748;2023-05-08T01:20:52;99836.59;;;16.50;51.65
18527;BME280;9393;42.158;24.748;2023-05-08T01:24:22;99839.22;;;16.50;51.69
18527;BME280;9393;42.158;24.748;2023-05-08T01:27:45;99846.66;;;16.46;51.44
18527;BME280;9393;42.158;24.748;2023-05-08T01:31:11;99838.13;;;16.44;52.06
18527;BME280;9393;42.158;24.748;2023-05-08T01:34:23;99833.56;;;16.30;52.11
18527;BME280;9393;42.158;24.748;2023-05-08T01:37:31;99836.97;;;16.39;51.80
18527;BME280;9393;42.158;24.748;2023-05-08T01:40:45;99831.22;;;16.35;52.06
18527;BME280;9393;42.158;24.748;2023-05-08T01:44:02;99833.56;;;16.30;52.20
18527;BME280;9393;42.158;24.748;2023-05-08T01:47:09;99841.34;;;16.54;51.57
18527;BME280;9393;42.158;24.748;2023-05-08T01:50:19;99834.13;;;16.48;51.68
18527;BME280;9393;42.158;24.748;2023-05-08T01:53:28;99834.78;;;16.03;52.57
18527;BME280;9393;42.158;24.748;2023-05-08T01:56:34;99834.53;;;16.37;51.91
18527;BME280;9393;42.158;24.748;2023-05-08T01:59:40;99829.03;;;16.08;52.47
18527;BME280;9393;42.158;24.748;2023-05-08T02:02:46;99846.34;;;16.02;52.78
18527;BME280;9393;42.158;24.748;2023-05-08T02:05:54;99844.47;;;16.11;52.42
18527;BME280;9393;42.158;24.748;2023-05-08T02:08:59;99842.41;;;15.90;52.81
18527;BME280;9393;42.158;24.748;2023-05-08T02:12:06;99837.47;;;15.87;52.80
18527;BME280;9393;42.158;24.748;2023-05-08T02:15:11;99835.53;;;15.81;53.04
18527;BME280;9393;42.158;24.748;2023-05-08T02:18:19;99827.44;;;15.91;52.68
18527;BME280;9393;42.158;24.748;2023-05-08T02:21:25;99828.88;;;16.09;52.45
18527;BME280;9393;42.158;24.748;2023-05-08T02:24:31;99831.53;;;15.93;52.29
18527;BME280;9393;42.158;24.748;2023-05-08T02:27:36;99830.81;;;16.15;51.97
18527;BME280;9393;42.158;24.748;2023-05-08T02:30:43;99837.06;;;16.14;52.35
18527;BME280;9393;42.158;24.748;2023-05-08T02:33:49;99835.06;;;16.25;51.78
18527;BME280;9393;42.158;24.748;2023-05-08T02:36:56;99849.47;;;15.90;52.06
18527;BME280;9393;42.158;24.748;2023-05-08T02:40:03;99846.06;;;15.81;52.02
18527;BME280;9393;42.158;24.748;2023-05-08T02:43:08;99844.19;;;15.98;51.70
18527;BME280;9393;42.158;24.748;2023-05-08T02:46:15;99846.97;;;16.04;51.84
18527;BME280;9393;42.158;24.748;2023-05-08T02:49:26;99844.75;;;15.69;52.35
18527;BME280;9393;42.158;24.748;2023-05-08T02:52:42;99846.88;;;15.65;52.53
18527;BME280;9393;42.158;24.748;2023-05-08T02:55:48;99842.31;;;15.68;52.18
18527;BME280;9393;42.158;24.748;2023-05-08T02:59:00;99838.81;;;15.83;52.05
18527;BME280;9393;42.158;24.748;2023-05-08T03:02:09;99842.75;;;15.79;51.93
18527;BME280;9393;42.158;24.748;2023-05-08T03:05:17;99839.47;;;15.77;51.65
18527;BME280;9393;42.158;24.748;2023-05-08T03:08:27;99837.69;;;15.70;51.82
18527;BME280;9393;42.158;24.748;2023-05-08T03:11:37;99842.78;;;15.71;51.59
18527;BME280;9393;42.158;24.748;2023-05-08T03:14:48;99852.81;;;15.68;51.74
18527;BME280;9393;42.158;24.748;2023-05-08T03:17:57;99860.81;;;15.98;50.76
18527;BME280;9393;42.158;24.748;2023-05-08T03:21:04;99854.44;;;15.85;51.18
18527;BME280;9393;42.158;24.748;2023-05-08T03:24:14;99857.53;;;15.88;50.71
18527;BME280;9393;42.158;24.748;2023-05-08T03:27:20;99857.06;;;15.85;50.64
18527;BME280;9393;42.158;24.748;2023-05-08T03:30:25;99870.34;;;15.91;50.11
18527;BME280;9393;42.158;24.748;2023-05-08T03:33:39;99872.97;;;15.99;50.41
18527;BME280;9393;42.158;24.748;2023-05-08T03:36:45;99866.69;;;16.16;49.98
18527;BME280;9393;42.158;24.748;2023-05-08T03:39:51;99857.97;;;16.16;49.90
18527;BME280;9393;42.158;24.748;2023-05-08T03:42:55;99866.91;;;16.38;49.36
18527;BME280;9393;42.158;24.748;2023-05-08T03:45:59;99877.25;;;16.47;49.54
18527;BME280;9393;42.158;24.748;2023-05-08T03:49:05;99875.22;;;16.18;49.51
18527;BME280;9393;42.158;24.748;2023-05-08T03:52:10;99880.88;;;16.46;49.23
18527;BME280;9393;42.158;24.748;2023-05-08T03:55:16;99877.50;;;16.22;49.72
18527;BME280;9393;42.158;24.748;2023-05-08T03:58:24;99876.72;;;16.13;50.04
18527;BME280;9393;42.158;24.748;2023-05-08T04:01:36;99883.63;;;16.53;49.41
18527;BME280;9393;42.158;24.748;2023-05-08T04:04:46;99879.88;;;16.86;48.54
18527;BME280;9393;42.158;24.748;2023-05-08T04:07:58;99885.91;;;17.17;48.13
18527;BME280;9393;42.158;24.748;2023-05-08T04:11:12;99896.13;;;17.43;47.92
18527;BME280;9393;42.158;24.748;2023-05-08T04:14:23;99897.34;;;17.78;47.17
18527;BME280;9393;42.158;24.748;2023-05-08T04:17:35;99894.25;;;18.04;47.57
18527;BME280;9393;42.158;24.748;2023-05-08T04:20:46;99897.34;;;18.07;48.61
18527;BME280;9393;42.158;24.748;2023-05-08T04:23:51;99904.22;;;17.64;50.13
18527;BME280;9393;42.158;24.748;2023-05-08T04:26:57;99901.13;;;17.76;50.76
18527;BME280;9393;42.158;24.748;2023-05-08T04:30:04;99901.50;;;17.73;50.85
18527;BME280;9393;42.158;24.748;2023-05-08T04:33:09;99899.41;;;17.68;50.92
18527;BME280;9393;42.158;24.748;2023-05-08T04:36:14;99892.28;;;18.06;50.49
18527;BME280;9393;42.158;24.748;2023-05-08T04:39:19;99890.06;;;17.80;50.66
18527;BME280;9393;42.158;24.748;2023-05-08T04:42:25;99892.16;;;18.73;48.31
18527;BME280;9393;42.158;24.748;2023-05-08T04:45:32;99891.75;;;18.90;48.36
18527;BME280;9393;42.158;24.748;2023-05-08T04:48:36;99895.16;;;18.70;48.05
18527;BME280;9393;42.158;24.748;2023-05-08T04:51:41;99903.34;;;19.10;47.45
18527;BME280;9393;42.158;24.748;2023-05-08T04:54:45;99898.53;;;18.78;47.98
18527;BME280;9393;42.158;24.748;2023-05-08T04:57:50;99897.13;;;19.18;47.32
18527;BME280;9393;42.158;24.748;2023-05-08T05:00:54;99888.34;;;18.46;49.18
18527;BME280;9393;42.158;24.748;2023-05-08T05:03:58;99880.88;;;18.64;48.61
18527;BME280;9393;42.158;24.748;2023-05-08T05:07:02;99884.78;;;19.04;47.58
18527;BME280;9393;42.158;24.748;2023-05-08T05:10:07;99887.50;;;19.10;46.99
18527;BME280;9393;42.158;24.748;2023-05-08T05:13:12;99889.38;;;19.38;46.52
18527;BME280;9393;42.158;24.748;2023-05-08T05:16:17;99885.22;;;19.43;46.59
18527;BME280;9393;42.158;24.748;2023-05-08T05:19:21;99887.72;;;20.07;44.97
18527;BME280;9393;42.158;24.748;2023-05-08T05:22:25;99877.31;;;20.05;45.41
18527;BME280;9393;42.158;24.748;2023-05-08T05:25:30;99883.72;;;20.58;44.16
18527;BME280;9393;42.158;24.748;2023-05-08T05:28:35;99883.84;;;20.91;41.56
18527;BME280;9393;42.158;24.748;2023-05-08T05:31:40;99875.47;;;20.81;40.68
18527;BME280;9393;42.158;24.748;2023-05-08T05:34:45;99875.25;;;20.89;39.90
18527;BME280;9393;42.158;24.748;2023-05-08T05:37:49;99870.72;;;20.63;40.31
18527;BME280;9393;42.158;24.748;2023-05-08T05:40:53;99860.59;;;20.93;40.38
18527;BME280;9393;42.158;24.748;2023-05-08T05:43:58;99858.91;;;20.79;40.95
18527;BME280;9393;42.158;24.748;2023-05-08T05:47:02;99865.53;;;21.03;40.92
18527;BME280;9393;42.158;24.748;2023-05-08T05:50:08;99863.78;;;20.69;41.35
18527;BME280;9393;42.158;24.748;2023-05-08T05:53:12;99856.91;;;20.81;40.27
18527;BME280;9393;42.158;24.748;2023-05-08T05:56:16;99854.91;;;20.01;41.43
18527;BME280;9393;42.158;24.748;2023-05-08T05:59:21;99851.34;;;20.70;40.91
18527;BME280;9393;42.158;24.748;2023-05-08T06:02:25;99846.56;;;20.39;40.93
18527;BME280;9393;42.158;24.748;2023-05-08T06:05:29;99853.66;;;20.86;40.43
18527;BME280;9393;42.158;24.748;2023-05-08T06:08:34;99856.69;;;20.89;40.20
18527;BME280;9393;42.158;24.748;2023-05-08T06:11:37;99847.63;;;21.31;39.32
18527;BME280;9393;42.158;24.748;2023-05-08T06:14:43;99852.31;;;21.23;38.45
18527;BME280;9393;42.158;24.748;2023-05-08T06:17:48;99848.44;;;21.32;38.00
18527;BME280;9393;42.158;24.748;2023-05-08T06:20:56;99852.31;;;21.29;37.43
18527;BME280;9393;42.158;24.748;2023-05-08T06:24:00;99850.06;;;21.13;38.40
18527;BME280;9393;42.158;24.748;2023-05-08T06:27:05;99849.06;;;21.66;38.17
18527;BME280;9393;42.158;24.748;2023-05-08T06:30:11;99845.00;;;21.57;37.07
18527;BME280;9393;42.158;24.748;2023-05-08T06:33:15;99838.19;;;21.88;36.98
18527;BME280;9393;42.158;24.748;2023-05-08T06:36:19;99844.25;;;22.28;36.74
18527;BME280;9393;42.158;24.748;2023-05-08T06:39:23;99846.53;;;22.11;37.00
18527;BME280;9393;42.158;24.748;2023-05-08T06:42:27;99837.25;;;22.40;36.09
18527;BME280;9393;42.158;24.748;2023-05-08T06:45:32;99832.78;;;22.34;36.92
18527;BME280;9393;42.158;24.748;2023-05-08T06:48:36;99834.47;;;22.22;37.00
18527;BME280;9393;42.158;24.748;2023-05-08T06:51:40;99831.81;;;22.66;36.71
18527;BME280;9393;42.158;24.748;2023-05-08T06:54:44;99834.47;;;23.04;36.48
18527;BME280;9393;42.158;24.748;2023-05-08T06:57:48;99826.78;;;22.96;36.37
18527;BME280;9393;42.158;24.748;2023-05-08T07:00:53;99825.97;;;22.95;35.91
18527;BME280;9393;42.158;24.748;2023-05-08T07:03:57;99821.47;;;22.89;36.88
18527;BME280;9393;42.158;24.748;2023-05-08T07:07:01;99818.53;;;23.04;36.36
18527;BME280;9393;42.158;24.748;2023-05-08T07:10:08;99825.56;;;22.92;36.60
18527;BME280;9393;42.158;24.748;2023-05-08T07:13:12;99819.31;;;22.73;36.46
18527;BME280;9393;42.158;24.748;2023-05-08T07:16:18;99808.47;;;23.31;36.02
18527;BME280;9393;42.158;24.748;2023-05-08T07:19:22;99815.25;;;23.58;36.20
18527;BME280;9393;42.158;24.748;2023-05-08T07:22:26;99813.53;;;23.39;35.98
18527;BME280;9393;42.158;24.748;2023-05-08T07:25:30;99810.34;;;23.55;36.18
18527;BME280;9393;42.158;24.748;2023-05-08T07:28:33;99801.50;;;23.61;35.58
18527;BME280;9393;42.158;24.748;2023-05-08T07:31:39;99801.00;;;23.71;36.05
18527;BME280;9393;42.158;24.748;2023-05-08T07:34:43;99798.09;;;23.72;36.11
18527;BME280;9393;42.158;24.748;2023-05-08T07:37:47;99800.34;;;23.75;35.57
18527;BME280;9393;42.158;24.748;2023-05-08T07:40:51;99805.81;;;24.35;34.90
18527;BME280;9393;42.158;24.748;2023-05-08T07:43:58;99809.72;;;24.50;34.39
18527;BME280;9393;42.158;24.748;2023-05-08T07:47:04;99808.81;;;24.27;35.52
18527;BME280;9393;42.158;24.748;2023-05-08T07:50:09;99805.41;;;24.68;34.61
18527;BME280;9393;42.158;24.748;2023-05-08T07:53:13;99797.97;;;24.70;34.35
18527;BME280;9393;42.158;24.748;2023-05-08T07:56:16;99793.03;;;24.55;35.08
18527;BME280;9393;42.158;24.748;2023-05-08T07:59:20;99786.66;;;24.08;36.13
18527;BME280;9393;42.158;24.748;2023-05-08T08:02:25;99786.56;;;24.62;34.88
18527;BME280;9393;42.158;24.748;2023-05-08T08:05:29;99779.44;;;24.45;35.31
18527;BME280;9393;42.158;24.748;2023-05-08T08:08:33;99776.53;;;23.12;37.09
18527;BME280;9393;42.158;24.748;2023-05-08T08:11:37;99777.13;;;23.82;36.78
18527;BME280;9393;42.158;24.748;2023-05-08T08:14:41;99779.78;;;24.48;35.56
18527;BME280;9393;42.158;24.748;2023-05-08T08:17:46;99770.84;;;24.13;35.71
18527;BME280;9393;42.158;24.748;2023-05-08T08:20:50;99769.38;;;24.47;35.79
18527;BME280;9393;42.158;24.748;2023-05-08T08:23:54;99761.19;;;24.30;36.55
18527;BME280;9393;42.158;24.748;2023-05-08T08:26:58;99760.22;;;24.25;36.21
18527;BME280;9393;42.158;24.748;2023-05-08T08:30:02;99760.56;;;24.46;35.59
18527;BME280;9393;42.158;24.748;2023-05-08T08:33:19;99762.13;;;24.36;36.89
18527;BME280;9393;42.158;24.748;2023-05-08T08:36:23;99754.16;;;24.77;36.02
18527;BME280;9393;42.158;24.748;2023-05-08T08:39:31;99755.47;;;24.86;35.59
18527;BME280;9393;42.158;24.748;2023-05-08T08:42:35;99755.66;;;25.38;35.05
18527;BME280;9393;42.158;24.748;2023-05-08T08:45:39;99752.63;;;25.23;35.23
18527;BME280;9393;42.158;24.748;2023-05-08T08:48:46;99747.06;;;25.12;35.28
18527;BME280;9393;42.158;24.748;2023-05-08T08:51:51;99749.06;;;25.52;34.57
18527;BME280;9393;42.158;24.748;2023-05-08T08:54:59;99743.78;;;25.80;35.06
18527;BME280;9393;42.158;24.748;2023-05-08T08:58:13;99737.81;;;25.61;34.55
18527;BME280;9393;42.158;24.748;2023-05-08T09:01:18;99741.47;;;25.49;34.80
18527;BME280;9393;42.158;24.748;2023-05-08T09:04:24;99739.25;;;25.92;34.65
18527;BME280;9393;42.158;24.748;2023-05-08T09:07:31;99731.38;;;25.74;34.94
18527;BME280;9393;42.158;24.748;2023-05-08T09:10:35;99729.56;;;26.03;34.54
18527;BME280;9393;42.158;24.748;2023-05-08T09:13:39;99726.88;;;25.05;35.61
18527;BME280;9393;42.158;24.748;2023-05-08T09:16:44;99724.53;;;25.55;35.18
18527;BME280;9393;42.158;24.748;2023-05-08T09:19:50;99719.66;;;26.15;34.44
18527;BME280;9393;42.158;24.748;2023-05-08T09:22:55;99706.94;;;26.34;34.58
18527;BME280;9393;42.158;24.748;2023-05-08T09:26:00;99698.47;;;26.25;34.50
18527;BME280;9393;42.158;24.748;2023-05-08T09:29:08;99695.91;;;26.30;33.76
18527;BME280;9393;42.158;24.748;2023-05-08T09:32:17;99683.06;;;26.60;33.88
18527;BME280;9393;42.158;24.748;2023-05-08T09:35:34;99674.66;;;26.85;33.74
18527;BME280;9393;42.158;24.748;2023-05-08T09:38:39;99669.38;;;27.45;33.48
18527;BME280;9393;42.158;24.748;2023-05-08T09:41:56;99674.91;;;26.84;34.06
18527;BME280;9393;42.158;24.748;2023-05-08T09:45:01;99665.22;;;27.16;33.27
18527;BME280;9393;42.158;24.748;2023-05-08T09:48:05;99671.53;;;26.60;33.80
18527;BME280;9393;42.158;24.748;2023-05-08T09:51:11;99659.28;;;25.62;35.33
18527;BME280;9393;42.158;24.748;2023-05-08T09:54:16;99649.50;;;26.53;34.24
18527;BME280;9393;42.158;24.748;2023-05-08T09:57:20;99646.81;;;26.53;34.49
18527;BME280;9393;42.158;24.748;2023-05-08T10:00:25;99648.69;;;26.69;34.22
18527;BME280;9393;42.158;24.748;2023-05-08T10:03:45;99638.91;;;26.91;34.09
18527;BME280;9393;42.158;24.748;2023-05-08T10:06:56;99633.66;;;27.18;33.60
18527;BME280;9393;42.158;24.748;2023-05-08T10:10:03;99630.59;;;26.59;34.76
18527;BME280;9393;42.158;24.748;2023-05-08T10:13:07;99634.25;;;27.03;33.60
18527;BME280;9393;42.158;24.748;2023-05-08T10:16:14;99627.97;;;27.53;33.47
18527;BME280;9393;42.158;24.748;2023-05-08T10:19:20;99625.28;;;27.75;32.99
18527;BME280;9393;42.158;24.748;2023-05-08T10:22:26;99620.13;;;27.46;33.15
18527;BME280;9393;42.158;24.748;2023-05-08T10:25:32;99619.66;;;26.94;34.74
18527;BME280;9393;42.158;24.748;2023-05-08T10:28:42;99616.91;;;26.89;34.58
18527;BME280;9393;42.158;24.748;2023-05-08T10:31:49;99608.06;;;27.27;34.05
18527;BME280;9393;42.158;24.748;2023-05-08T10:34:58;99602.00;;;27.53;34.13
18527;BME280;9393;42.158;24.748;2023-05-08T10:38:04;99601.84;;;27.22;34.24
18527;BME280;9393;42.158;24.748;2023-05-08T10:41:11;99595.44;;;27.66;33.62
18527;BME280;9393;42.158;24.748;2023-05-08T10:44:16;99601.09;;;27.26;34.30
18527;BME280;9393;42.158;24.748;2023-05-08T10:47:24;99588.28;;;27.50;33.75
18527;BME280;9393;42.158;24.748;2023-05-08T10:50:41;99586.03;;;28.17;33.03
18527;BME280;9393;42.158;24.748;2023-05-08T10:53:54;99582.97;;;27.55;33.76
18527;BME280;9393;42.158;24.748;2023-05-08T10:57:08;99591.38;;;27.42;33.85
18527;BME280;9393;42.158;24.748;2023-05-08T11:00:13;99593.25;;;27.20;34.35
18527;BME280;9393;42.158;24.748;2023-05-08T11:03:17;99592.44;;;27.41;34.74
18527;BME280;9393;42.158;24.748;2023-05-08T11:06:44;99579.94;;;27.46;34.06
18527;BME280;9393;42.158;24.748;2023-05-08T11:09:50;99582.34;;;27.70;34.28
18527;BME280;9393;42.158;24.748;2023-05-08T11:12:54;99584.47;;;27.94;33.51
18527;BME280;9393;42.158;24.748;2023-05-08T11:15:58;99575.28;;;27.85;35.01
18527;BME280;9393;42.158;24.748;2023-05-08T11:19:15;99577.41;;;28.10;33.57
18527;BME280;9393;42.158;24.748;2023-05-08T11:22:22;99574.09;;;27.76;34.18
18527;BME280;9393;42.158;24.748;2023-05-08T11:25:43;99580.28;;;28.35;33.17
18527;BME280;9393;42.158;24.748;2023-05-08T11:28:55;99573.06;;;28.36;33.27
18527;BME280;9393;42.158;24.748;2023-05-08T11:31:59;99559.22;;;27.90;33.72
18527;BME280;9393;42.158;24.748;2023-05-08T11:35:04;99557.03;;;27.82;34.74
18527;BME280;9393;42.158;24.748;2023-05-08T11:38:20;99559.78;;;28.19;33.67
18527;BME280;9393;42.158;24.748;2023-05-08T11:41:25;99553.63;;;28.19;34.45
18527;BME280;9393;42.158;24.748;2023-05-08T11:44:30;99545.38;;;27.98;34.93
18527;BME280;9393;42.158;24.748;2023-05-08T11:47:38;99538.09;;;27.94;34.33
18527;BME280;9393;42.158;24.748;2023-05-08T11:50:43;99552.00;;;28.18;35.03
18527;BME280;9393;42.158;24.748;2023-05-08T11:53:48;99549.94;;;27.98;34.05
18527;BME280;9393;42.158;24.748;2023-05-08T11:56:53;99545.88;;;28.22;34.00
18527;BME280;9393;42.158;24.748;2023-05-08T11:59:57;99544.25;;;28.58;33.93
18527;BME280;9393;42.158;24.748;2023-05-08T12:03:06;99536.59;;;28.03;34.73
18527;BME280;9393;42.158;24.748;2023-05-08T12:06:10;99530.41;;;28.02;34.95
18527;BME280;9393;42.158;24.748;2023-05-08T12:09:15;99520.00;;;27.31;35.83
18527;BME280;9393;42.158;24.748;2023-05-08T12:12:21;99526.03;;;28.23;34.75
18527;BME280;9393;42.158;24.748;2023-05-08T12:15:25;99517.34;;;28.48;34.49
18527;BME280;9393;42.158;24.748;2023-05-08T12:18:30;99518.75;;;28.19;35.11
18527;BME280;9393;42.158;24.748;2023-05-08T12:21:34;99515.00;;;27.61;36.04
18527;BME280;9393;42.158;24.748;2023-05-08T12:24:38;99507.13;;;27.28;36.10
18527;BME280;9393;42.158;24.748;2023-05-08T12:27:44;99503.91;;;26.66;37.33
18527;BME280;9393;42.158;24.748;2023-05-08T12:30:48;99501.41;;;27.19;36.51
18527;BME280;9393;42.158;24.748;2023-05-08T12:33:53;99499.00;;;26.79;37.13
18527;BME280;9393;42.158;24.748;2023-05-08T12:37:02;99503.81;;;26.77;36.76
18527;BME280;9393;42.158;24.748;2023-05-08T12:40:20;99503.59;;;26.62;36.93
18527;BME280;9393;42.158;24.748;2023-05-08T12:43:34;99494.06;;;27.09;36.63
18527;BME280;9393;42.158;24.748;2023-05-08T12:46:45;99501.22;;;27.26;36.31
18527;BME280;9393;42.158;24.748;2023-05-08T12:49:49;99494.13;;;27.15;36.49
18527;BME280;9393;42.158;24.748;2023-05-08T12:52:54;99490.53;;;27.31;36.83
18527;BME280;9393;42.158;24.748;2023-05-08T12:56:04;99497.09;;;27.40;36.29
18527;BME280;9393;42.158;24.748;2023-05-08T12:59:10;99496.66;;;27.48;36.49
18527;BME280;9393;42.158;24.748;2023-05-08T13:02:16;99498.84;;;26.86;37.32
18527;BME280;9393;42.158;24.748;2023-05-08T13:05:22;99493.72;;;27.28;36.75
18527;BME280;9393;42.158;24.748;2023-05-08T13:08:30;99493.50;;;27.83;35.98
18527;BME280;9393;42.158;24.748;2023-05-08T13:11:35;99502.16;;;28.22;35.72
18527;BME280;9393;42.158;24.748;2023-05-08T13:14:42;99498.00;;;28.41;34.83
18527;BME280;9393;42.158;24.748;2023-05-08T13:17:46;99497.03;;;28.57;35.10
18527;BME280;9393;42.158;24.748;2023-05-08T13:20:50;99488.59;;;28.80;34.46
18527;BME280;9393;42.158;24.748;2023-05-08T13:23:54;99480.88;;;28.52;34.55
18527;BME280;9393;42.158;24.748;2023-05-08T13:26:58;99467.13;;;28.01;35.15
18527;BME280;9393;42.158;24.748;2023-05-08T13:30:05;99461.81;;;27.48;35.95
18527;BME280;9393;42.158;24.748;2023-05-08T13:33:09;99458.31;;;27.21;36.45
18527;BME280;9393;42.158;24.748;2023-05-08T13:36:13;99458.03;;;26.95;36.98
18527;BME280;9393;42.158;24.748;2023-05-08T13:39:17;99455.91;;;26.97;37.11
18527;BME280;9393;42.158;24.748;2023-05-08T13:42:21;99456.38;;;26.73;37.56
18527;BME280;9393;42.158;24.748;2023-05-08T13:45:27;99457.28;;;26.78;37.10
18527;BME280;9393;42.158;24.748;2023-05-08T13:48:31;99445.38;;;26.69;37.08
18527;BME280;9393;42.158;24.748;2023-05-08T13:51:35;99447.53;;;27.37;36.16
18527;BME280;9393;42.158;24.748;2023-05-08T13:54:39;99439.94;;;27.56;36.39
18527;BME280;9393;42.158;24.748;2023-05-08T13:57:43;99444.25;;;27.57;36.08
18527;BME280;9393;42.158;24.748;2023-05-08T14:00:48;99437.56;;;27.33;36.35
18527;BME280;9393;42.158;24.748;2023-05-08T14:03:52;99435.41;;;27.30;36.56
18527;BME280;9393;42.158;24.748;2023-05-08T14:06:57;99428.84;;;27.74;36.26
18527;BME280;9393;42.158;24.748;2023-05-08T14:10:01;99424.06;;;27.44;37.54
18527;BME280;9393;42.158;24.748;2023-05-08T14:13:05;99422.66;;;27.15;39.16
18527;BME280;9393;42.158;24.748;2023-05-08T14:16:10;99426.84;;;27.33;39.06
18527;BME280;9393;42.158;24.748;2023-05-08T14:19:15;99428.94;;;27.52;38.36
18527;BME280;9393;42.158;24.748;2023-05-08T14:22:20;99435.50;;;27.40;38.75
18527;BME280;9393;42.158;24.748;2023-05-08T14:25:24;99442.69;;;27.61;38.67
18527;BME280;9393;42.158;24.748;2023-05-08T14:28:28;99444.34;;;27.67;38.34
18527;BME280;9393;42.158;24.748;2023-05-08T14:31:33;99450.75;;;27.66;38.44
18527;BME280;9393;42.158;24.748;2023-05-08T14:34:37;99443.75;;;27.38;38.27
18527;BME280;9393;42.158;24.748;2023-05-08T14:37:41;99442.34;;;27.04;38.83
18527;BME280;9393;42.158;24.748;2023-05-08T14:40:45;99452.97;;;26.77;39.35
18527;BME280;9393;42.158;24.748;2023-05-08T14:43:52;99434.94;;;26.29;40.14
18527;BME280;9393;42.158;24.748;2023-05-08T14:46:57;99436.75;;;26.24;40.21
18527;BME280;9393;42.158;24.748;2023-05-08T14:50:01;99445.38;;;26.14;40.61
18527;BME280;9393;42.158;24.748;2023-05-08T14:53:05;99443.06;;;25.84;41.31
18527;BME280;9393;42.158;24.748;2023-05-08T14:56:09;99447.66;;;25.72;41.40
18527;BME280;9393;42.158;24.748;2023-05-08T14:59:13;99438.84;;;25.72;41.68
18527;BME280;9393;42.158;24.748;2023-05-08T15:02:18;99444.25;;;25.60;42.13
18527;BME280;9393;42.158;24.748;2023-05-08T15:05:22;99456.75;;;25.43;42.12
18527;BME280;9393;42.158;24.748;2023-05-08T15:08:26;99456.38;;;25.23;42.33
18527;BME280;9393;42.158;24.748;2023-05-08T15:11:30;99448.44;;;25.28;42.19
18527;BME280;9393;42.158;24.748;2023-05-08T15:14:34;99447.41;;;25.00;42.91
18527;BME280;9393;42.158;24.748;2023-05-08T15:17:40;99443.00;;;24.94;43.00
18527;BME280;9393;42.158;24.748;2023-05-08T15:20:43;99453.81;;;24.88;42.62
18527;BME280;9393;42.158;24.748;2023-05-08T15:23:47;99457.41;;;24.82;43.25
18527;BME280;9393;42.158;24.748;2023-05-08T15:26:51;99459.53;;;24.68;43.57
18527;BME280;9393;42.158;24.748;2023-05-08T15:29:55;99454.19;;;24.68;43.32
18527;BME280;9393;42.158;24.748;2023-05-08T15:33:01;99442.72;;;24.56;44.40
18527;BME280;9393;42.158;24.748;2023-05-08T15:36:05;99450.75;;;24.33;45.38
18527;BME280;9393;42.158;24.748;2023-05-08T15:39:09;99451.91;;;24.13;47.60
18527;BME280;9393;42.158;24.748;2023-05-08T15:42:13;99467.03;;;24.01;48.35
18527;BME280;9393;42.158;24.748;2023-05-08T15:45:17;99477.22;;;23.81;50.38
18527;BME280;9393;42.158;24.748;2023-05-08T15:48:23;99475.38;;;23.52;51.40
18527;BME280;9393;42.158;24.748;2023-05-08T15:51:27;99479.47;;;23.54;51.78
18527;BME280;9393;42.158;24.748;2023-05-08T15:54:31;99483.00;;;23.48;51.81
18527;BME280;9393;42.158;24.748;2023-05-08T15:57:34;99497.28;;;23.65;51.39
18527;BME280;9393;42.158;24.748;2023-05-08T16:00:38;99507.47;;;23.57;51.14
18527;BME280;9393;42.158;24.748;2023-05-08T16:03:48;99517.69;;;23.42;52.25
18527;BME280;9393;42.158;24.748;2023-05-08T16:06:52;99522.06;;;23.54;53.00
18527;BME280;9393;42.158;24.748;2023-05-08T16:09:57;99534.22;;;23.62;53.82
18527;BME280;9393;42.158;24.748;2023-05-08T16:13:00;99539.97;;;23.29;56.17
18527;BME280;9393;42.158;24.748;2023-05-08T16:16:05;99543.41;;;23.48;57.35
18527;BME280;9393;42.158;24.748;2023-05-08T16:19:10;99556.16;;;23.46;59.09
18527;BME280;9393;42.158;24.748;2023-05-08T16:22:14;99564.84;;;23.53;59.02
18527;BME280;9393;42.158;24.748;2023-05-08T16:25:18;99580.38;;;23.38;60.67